• Join FlightAware (Why Join?)
  • Login
  • US Flag 
09:25PM EST


 

Airport Tracker/Info


-or-


 

Live Flight TrackerFlight Track Log ✈ UAL33 ✈ 14-Jun-2013 ✈ KIAH - KORD

Flight Track Log - Related Links

Times and Time Zones

All times are in EDT time to prevent confusion due to time zone crossing. See the UAL33 flight status page for this flight to view local times or setup timezone preferences in your user account.

Time Position Orientation Groundspeed Altitude Reporting Facility
EDT Latitude Longitude Course Direction KTS MPH feet Rate Location/Type
05:24PM 29.9425 -95.3588 182° South 178 205 1,700  Level FlightAware ADS-B
05:24PM 29.9423 -95.3625 266° West 184 212 1,800 2,220 Climbing FlightAware ADS-B
05:24PM 29.9431 -95.3672 281° West 188 216 2,000 1,980 Climbing FlightAware ADS-B
05:25PM 29.9442 -95.3704 292° West 189 217 2,100 1,680 Climbing FlightAware ADS-B
05:25PM 29.9457 -95.3732 302° West 192 221 2,200 1,500 Climbing FlightAware ADS-B
05:25PM 29.9487 -95.3770 312° West 196 226 2,300 1,500 Climbing FlightAware ADS-B
05:25PM 29.9511 -95.3790 324° Northwest 198 228 2,400 1,980 Climbing FlightAware ADS-B
05:25PM 29.9536 -95.3805 333° Northwest 200 230 2,500 2,520 Climbing FlightAware ADS-B
05:25PM 29.9575 -95.3821 340° North 204 235 2,700 1,680 Climbing FlightAware ADS-B
05:25PM 29.9601 -95.3826 351° North 208 239 2,700 840 Level FlightAware ADS-B
05:25PM 29.9638 -95.3832 352° North 215 247 2,800 660 Climbing FlightAware ADS-B
05:25PM 29.9784 -95.3848 355° North 243 280 2,900 1,440 Climbing FlightAware ADS-B
05:26PM 30.0166 -95.3902 353° North 270 311 3,900 600 Climbing FlightAware ADS-B
05:27PM 30.1143 -95.4037 353° North 274 315 4,000 180 Climbing FlightAware ADS-B
05:27PM 30.1475 -95.4083 353° North 275 316 4,300 960 Climbing FlightAware ADS-B
05:27PM 30.1526 -95.4094 349° North 276 318 4,500 3,180 Climbing FlightAware ADS-B
05:28PM 30.1662 -95.4156 334° Northwest 278 320 5,100 3,420 Climbing FlightAware ADS-B
05:28PM 30.1751 -95.4221 326° Northwest 279 321 5,600 3,060 Climbing FlightAware ADS-B
05:29PM 30.2366 -95.4710 326° Northwest 283 326 8,400 2,820 Climbing FlightAware ADS-B
05:29PM 30.2605 -95.4854 333° Northwest 303 349 9,200 2,460 Climbing FlightAware ADS-B
05:29PM 30.2804 -95.4973 333° Northwest 309 356 9,900 2,700 Climbing FlightAware ADS-B
05:31PM 30.4037 -95.5721 332° Northwest 344 396 14,200 2,580 Climbing FlightAware ADS-B
05:33PM 30.6044 -95.6897 336° Northwest 407 468 19,300 2,460 Climbing FlightAware ADS-B
05:33PM 30.6564 -95.7165 336° Northwest 410 472 20,700 2,700 Climbing FlightAware ADS-B
05:34PM 30.7100 -95.7448 336° Northwest 413 475 22,100 2,640 Climbing FlightAware ADS-B
05:34PM 30.7625 -95.7732 335° Northwest 415 478 23,400 2,460 Climbing FlightAware ADS-B
05:35PM 30.8242 -95.8063 335° Northwest 422 486 24,800 2,340 Climbing FlightAware ADS-B
05:36PM 30.8790 -95.8359 335° Northwest 425 489 26,000 2,100 Climbing FlightAware ADS-B
05:37PM 30.9881 -95.8946 335° Northwest 436 502 28,000 1,920 Climbing FlightAware ADS-B
05:37PM 31.0291 -95.9115 343° North 440 506 28,700 2,160 Climbing FlightAware ADS-B
05:37PM 31.0906 -95.9227 351° North 440 506 29,900 1,980 Climbing FlightAware ADS-B
05:38PM 31.1520 -95.9304 354° North 446 513 30,700 1,560 Climbing FlightAware ADS-B
05:38PM 31.2144 -95.9382 354° North 451 519 31,500 1,500 Climbing FlightAware ADS-B
05:39PM 31.2803 -95.9464 354° North 455 524 32,300 1,320 Climbing FlightAware ADS-B
05:41PM 31.5467 -95.9796 354° North 474 545 35,000 1,260 Climbing FlightAware ADS-B
05:42PM 31.6125 -95.9879 354° North 478 550 35,600 1,140 Climbing FlightAware ADS-B
05:42PM 31.6837 -95.9968 354° North 482 555 36,200 1,140 Climbing FlightAware ADS-B
05:43PM 31.7505 -96.0052 354° North 484 557 36,800 1,440 Climbing FlightAware ADS-B
05:43PM 31.8191 -96.0138 354° North 478 550 37,700 1,620 Climbing FlightAware ADS-B
05:44PM 31.9130 -96.0260 354° North 469 540 38,800 1,500 Climbing FlightAware
05:44PM 31.9313 -96.0279 355° North 474 545 39,000 1,200 Climbing FlightAware ADS-B
05:44PM 31.9980 -96.0360 354° North 466 536 39,600 1,080 Climbing FlightAware
05:45PM 32.0713 -96.0457 354° North 468 539 40,200 780 Climbing FlightAware ADS-B
05:46PM 32.1442 -96.0549 354° North 468 539 40,500 480 Climbing FlightAware ADS-B
05:47PM 32.2668 -96.0704 354° North 467 537 41,000 240 Climbing FlightAware ADS-B
05:48PM 32.3900 -96.0860 354° North 474 545 41,000  Level FlightAware
05:48PM 32.4890 -96.0990 354° North 475 547 41,000  Level FlightAware
05:49PM 32.5770 -96.1100 354° North 476 548 41,000  Level FlightAware
05:50PM 32.6670 -96.1210 354° North 477 549 41,000  Level FlightAware
05:50PM 32.7650 -96.1340 354° North 478 550 41,000  Level FlightAware
05:51PM 32.8530 -96.1450 354° North 479 551 41,000  Level FlightAware
05:52PM 32.9770 -96.1390 North 489 563 41,000  Level FlightAware
05:53PM 33.0670 -96.0880 25° Northeast 492 566 41,000  Level FlightAware
05:53PM 33.1480 -96.0390 27° Northeast 491 565 41,000  Level FlightAware
05:54PM 33.2370 -95.9850 27° Northeast 492 566 41,000  Level FlightAware
05:55PM 33.3140 -95.9380 27° Northeast 492 566 41,000  Level FlightAware
05:55PM 33.4050 -95.8820 27° Northeast 493 567 41,000  Level FlightAware
05:56PM 33.4910 -95.8300 27° Northeast 493 567 41,000  Level FlightAware
05:57PM 33.5790 -95.7760 27° Northeast 494 568 41,000  Level FlightAware
05:58PM 33.6610 -95.7250 27° Northeast 493 567 41,000  Level FlightAware
05:58PM 33.7500 -95.6710 27° Northeast 492 566 41,000  Level FlightAware
05:59PM 33.8290 -95.6180 29° Northeast 495 570 41,000  Level FlightAware
06:00PM 33.9020 -95.5580 34° Northeast 496 571 41,000  Level FlightAware
06:00PM 33.9880 -95.4900 33° Northeast 494 568 41,000  Level FlightAware
06:01PM 34.0740 -95.4400 26° Northeast 491 565 41,000  Level FlightAware
06:02PM 34.1350 -95.4070 24° Northeast 490 564 41,000  Level FlightAware
06:03PM 34.2590 -95.3490 21° North 490 564 41,000  Level FlightAware
06:03PM 34.3340 -95.3060 25° Northeast 491 565 41,000  Level FlightAware
06:04PM 34.4260 -95.2500 27° Northeast 493 567 41,000  Level FlightAware
06:05PM 34.5150 -95.1950 27° Northeast 495 570 41,000  Level FlightAware
06:05PM 34.5900 -95.1480 27° Northeast 494 568 41,000  Level FlightAware
06:06PM 34.6870 -95.0870 27° Northeast 493 567 41,000  Level FlightAware
06:07PM 34.7680 -95.0370 27° Northeast 493 567 41,000  Level FlightAware
06:07PM 34.3470 -95.2990 207° Southwest 41,000  Level FlightAware
06:09PM 34.9870 -94.8960 27° Northeast 489 563 41,000  Level FlightAware
06:09PM 35.1010 -94.8230 28° Northeast 490 564 41,000  Level FlightAware
06:10PM 35.1790 -94.7730 28° Northeast 490 564 41,000  Level FlightAware
06:11PM 35.2900 -94.7020 28° Northeast 490 564 41,000  Level FlightAware
06:12PM 35.3680 -94.6520 28° Northeast 492 566 41,000  Level FlightAware
06:12PM 35.4660 -94.5890 28° Northeast 493 567 41,000  Level FlightAware
06:13PM 35.5380 -94.5420 28° Northeast 493 567 41,000  Level FlightAware
06:14PM 35.6360 -94.4780 28° Northeast 493 567 41,000  Level FlightAware
06:15PM 35.7210 -94.4230 28° Northeast 491 565 41,000  Level FlightAware
06:16PM 35.8330 -94.3510 28° Northeast 488 562 41,000  Level FlightAware
06:16PM 35.9120 -94.2990 28° Northeast 486 559 41,000  Level FlightAware
06:17PM 35.9940 -94.2450 28° Northeast 485 558 41,000  Level FlightAware
06:18PM 36.0870 -94.1840 28° Northeast 488 562 41,000  Level FlightAware
06:18PM 36.1630 -94.1340 28° Northeast 488 562 41,000  Level FlightAware
06:19PM 36.2460 -94.0790 28° Northeast 486 559 41,000  Level FlightAware
06:20PM 36.3300 -94.0240 28° Northeast 484 557 41,000  Level FlightAware
06:20PM 36.4130 -93.9690 28° Northeast 481 554 41,000  Level FlightAware
06:21PM 36.4990 -93.9120 28° Northeast 479 551 41,000  Level FlightAware
06:22PM 36.5770 -93.8600 28° Northeast 478 550 41,000  Level FlightAware
06:22PM 36.6550 -93.8080 28° Northeast 476 548 41,000  Level FlightAware
06:23PM 36.7410 -93.7500 28° Northeast 476 548 41,000  Level FlightAware
06:24PM 36.8170 -93.6990 28° Northeast 477 549 41,000  Level FlightAware
06:25PM 36.9110 -93.6360 28° Northeast 481 554 41,000  Level FlightAware
06:25PM 36.9900 -93.5820 29° Northeast 482 555 41,000  Level FlightAware
06:26PM 37.0600 -93.5350 28° Northeast 485 558 41,000  Level FlightAware
06:27PM 37.1540 -93.4720 28° Northeast 497 572 41,000  Level FlightAware
06:27PM 37.2400 -93.4130 29° Northeast 502 578 41,000  Level FlightAware
06:28PM 37.3300 -93.3510 29° Northeast 505 581 41,000  Level FlightAware
06:29PM 37.4070 -93.2870 33° Northeast 505 581 41,000  Level FlightAware
06:29PM 37.4820 -93.2180 36° Northeast 500 575 41,000  Level FlightAware
06:30PM 37.5300 -93.1730 37° Northeast 497 572 41,000  Level FlightAware
06:31PM 37.6390 -93.0730 36° Northeast 502 578 41,000  Level FlightAware
06:31PM 37.7060 -93.0100 37° Northeast 503 579 41,000  Level FlightAware
06:32PM 37.7910 -92.9310 36° Northeast 503 579 41,000  Level FlightAware
06:33PM 37.8640 -92.8630 36° Northeast 506 582 41,000  Level FlightAware
06:34PM 37.9530 -92.7790 37° Northeast 506 582 41,000  Level FlightAware
06:34PM 38.0280 -92.7090 36° Northeast 504 580 41,000  Level FlightAware
06:35PM 38.1030 -92.6380 37° Northeast 501 577 41,000  Level FlightAware
06:36PM 38.1850 -92.5610 36° Northeast 498 573 41,000  Level FlightAware
06:36PM 38.2610 -92.4900 36° Northeast 498 573 41,000  Level FlightAware
06:37PM 38.3370 -92.4180 37° Northeast 500 575 41,000  Level FlightAware
06:38PM 38.4340 -92.3260 37° Northeast 498 573 41,000  Level FlightAware
06:39PM 38.4910 -92.2730 36° Northeast 498 573 41,000  Level FlightAware
06:40PM 38.6060 -92.1660 36° Northeast 498 573 41,000  Level FlightAware
06:41PM 38.6620 -92.1140 36° Northeast 498 573 41,000  Level FlightAware
06:41PM 38.8030 -91.9700 38° Northeast 504 580 41,000  Level FlightAware
06:42PM 38.8830 -91.8930 37° Northeast 504 580 41,000  Level FlightAware
06:43PM 38.9760 -91.8020 37° Northeast 504 580 41,000  Level FlightAware
06:44PM 39.0600 -91.7200 37° Northeast 507 583 41,000  Level FlightAware
06:44PM 39.1300 -91.6530 37° Northeast 507 583 41,000  Level FlightAware
06:45PM 39.1920 -91.5930 37° Northeast 507 583 41,000  Level FlightAware
06:46PM 39.2880 -91.4970 38° Northeast 498 573 41,000  Level FlightAware
06:46PM 39.3600 -91.4260 37° Northeast 502 578 41,000 -120 Level FlightAware
06:47PM 39.4450 -91.3420 37° Northeast 504 580 40,900 -420 Descending FlightAware
06:48PM 39.5250 -91.2630 37° Northeast 492 566 40,400 -660 Descending FlightAware
06:49PM 39.6040 -91.1850 37° Northeast 487 560 40,000 -960 Descending FlightAware
06:49PM 39.6780 -91.1110 38° Northeast 494 568 39,100 -1,320 Descending FlightAware
06:50PM 39.7450 -91.0440 38° Northeast 501 577 38,300 -1,320 Descending FlightAware
06:51PM 39.8330 -90.9550 38° Northeast 509 586 37,300 -900 Descending FlightAware
06:51PM 39.9070 -90.8800 38° Northeast 503 579 37,000 -240 Descending FlightAware
06:52PM 39.9740 -90.8130 37° Northeast 503 579 37,000 -120 Level FlightAware
06:53PM 40.0640 -90.7220 38° Northeast 502 578 36,900 -780 Descending FlightAware
06:53PM 40.1220 -90.6630 38° Northeast 496 571 35,900 -2,400 Descending FlightAware
06:54PM 40.2140 -90.5700 38° Northeast 498 573 33,600 -2,160 Descending FlightAware
06:55PM 40.2860 -90.4960 38° Northeast 489 563 33,000 -420 Descending FlightAware
06:56PM 40.3940 -90.3850 38° Northeast 496 571 33,000  Level FlightAware
06:57PM 40.4800 -90.2970 38° Northeast 499 574 33,000  Level FlightAware
06:57PM 40.5480 -90.2270 38° Northeast 501 577 33,000 -840 Level FlightAware
06:58PM 40.6290 -90.1440 38° Northeast 494 568 31,900 -1,740 Descending FlightAware
06:59PM 40.7020 -90.0680 38° Northeast 486 559 30,500 -1,860 Descending FlightAware
06:59PM 40.7770 -89.9890 39° Northeast 470 541 29,300 -1,680 Descending FlightAware
07:00PM 40.8410 -89.9230 38° Northeast 454 522 28,300 -1,680 Descending FlightAware
07:01PM 40.9080 -89.8530 38° Northeast 439 505 27,100 -1,980 Descending FlightAware
07:01PM 40.9830 -89.7680 41° Northeast 437 503 25,400 -1,980 Descending FlightAware
07:02PM 41.0300 -89.6820 54° Northeast 440 506 24,200 -1,140 Descending FlightAware
07:03PM 41.0790 -89.5850 56° Northeast 440 506 23,900 -1,140 Descending FlightAware
07:04PM 41.1240 -89.4950 56° Northeast 431 496 22,700 -2,220 Descending FlightAware
07:04PM 41.1660 -89.4110 56° Northeast 434 499 21,000 -2,580 Descending FlightAware
07:05PM 41.2160 -89.3110 56° Northeast 432 497 19,100 -2,220 Descending FlightAware
07:06PM 41.2620 -89.2180 57° Northeast 414 476 17,800 -1,800 Descending FlightAware
07:06PM 41.3080 -89.1240 57° Northeast 408 470 16,500 -1,740 Descending FlightAware
07:07PM 41.3490 -89.0420 56° Northeast 408 470 15,400 -1,740 Descending FlightAware
07:08PM 41.3910 -88.9550 57° Northeast 401 461 14,200 -1,680 Descending FlightAware
07:08PM 41.4300 -88.8770 56° Northeast 394 453 13,200 -1,680 Descending FlightAware
07:09PM 41.4740 -88.7860 57° Northeast 391 450 11,900 -1,620 Descending FlightAware
07:10PM 41.5140 -88.7020 58° Northeast 373 429 10,900 -780 Descending FlightAware
07:11PM 41.5450 -88.6240 62° Northeast 334 384 10,900  Level FlightAware
07:11PM 41.5750 -88.5480 62° Northeast 301 346 10,900  Level FlightAware
07:12PM 41.5930 -88.5080 59° Northeast 301 346 10,900  Level FlightAware
07:13PM 41.6450 -88.4430 43° Northeast 296 341 10,900 -240 Level FlightAware
07:13PM 41.6900 -88.3910 41° Northeast 293 337 10,600 -960 Descending FlightAware
07:14PM 41.7370 -88.3610 25° Northeast 285 328 9,600 -1,500 Descending FlightAware
07:14PM 41.7550 -88.3600 North 285 328 9,300 -1,380 Descending FlightAware
07:15PM 41.7900 -88.3610 359° North 286 329 8,700 -1,080 Descending FlightAware
07:15PM 41.8210 -88.3610 360° North 278 320 8,400 -780 Descending FlightAware
07:16PM 41.8630 -88.3610 360° North 255 293 8,000 -1,140 Descending FlightAware
07:16PM 41.8950 -88.3610 360° North 231 266 7,300 -1,200 Descending FlightAware
07:16PM 41.9230 -88.3610 360° North 207 238 6,900 -900 Descending FlightAware
07:17PM 41.9570 -88.3510 12° North 206 237 6,300 -960 Descending FlightAware
07:17PM 41.9660 -88.3250 65° Northeast 205 236 6,000 -840 Descending FlightAware
07:18PM 41.9680 -88.2960 85° East 194 223 5,700 -960 Descending FlightAware
07:18PM 41.9640 -88.2650 100° East 190 219 5,200 -900 Descending FlightAware
07:19PM 41.9510 -88.2380 123° Southeast 188 216 4,900 -600 Descending FlightAware
07:19PM 41.9390 -88.2140 124° Southeast 184 212 4,700 -780 Descending FlightAware
07:19PM 41.9330 -88.1980 117° Southeast 183 211 4,400 -1,080 Descending FlightAware
07:20PM 41.9410 -88.1670 71° East 182 209 3,900 -840 Descending FlightAware
07:20PM 41.9550 -88.1390 56° Northeast 184 212 3,600 -840 Descending FlightAware
07:21PM 41.9670 -88.1110 60° Northeast 178 205 3,100 -900 Descending FlightAware
07:21PM 41.9680 -88.0850 87° East 167 192 2,800 -780 Descending FlightAware
07:22PM 41.9690 -88.0560 87° East 162 186 2,400 -960 Descending FlightAware
07:22PM 41.9690 -88.0260 90° East 142 163 1,900 -840 Descending FlightAware
07:23PM 41.9690 -87.9900 90° East 137 158 1,400 -720 Descending FlightAware
07:24PM 41.9690 -87.9680 90° East 135 155 1,100 -720 Descending FlightAware
07:24PM 41.9690 -87.9480 90° East 137 158 800 -720 Descending FlightAware
07:24PM 41.9690 -87.9210 90° East 130 150 500 -360 Descending FlightAware
07:25PM 41.9690 -87.9040 90° East 130 150 500  Level FlightAware